sensor_id;sensor_type;location;lat;lon;timestamp;P1;durP1;ratioP1;P2;durP2;ratioP2
16199;SDS011;8207;52.494;4.654;2024-02-04T00:01:38;5.25;;;2.10;;
16199;SDS011;8207;52.494;4.654;2024-02-04T00:04:03;5.77;;;2.20;;
16199;SDS011;8207;52.494;4.654;2024-02-04T00:06:29;5.87;;;2.37;;
16199;SDS011;8207;52.494;4.654;2024-02-04T00:08:54;6.23;;;2.23;;
16199;SDS011;8207;52.494;4.654;2024-02-04T00:11:19;6.33;;;2.20;;
16199;SDS011;8207;52.494;4.654;2024-02-04T00:13:44;5.78;;;2.00;;
16199;SDS011;8207;52.494;4.654;2024-02-04T00:16:09;5.07;;;2.20;;
16199;SDS011;8207;52.494;4.654;2024-02-04T00:18:35;5.40;;;2.20;;
16199;SDS011;8207;52.494;4.654;2024-02-04T00:21:00;5.80;;;2.10;;
16199;SDS011;8207;52.494;4.654;2024-02-04T00:23:25;4.50;;;2.30;;
16199;SDS011;8207;52.494;4.654;2024-02-04T00:25:50;5.37;;;2.20;;
16199;SDS011;8207;52.494;4.654;2024-02-04T00:28:15;5.57;;;2.10;;
16199;SDS011;8207;52.494;4.654;2024-02-04T00:30:41;5.53;;;2.30;;
16199;SDS011;8207;52.494;4.654;2024-02-04T00:33:06;5.55;;;2.10;;
16199;SDS011;8207;52.494;4.654;2024-02-04T00:35:31;5.30;;;2.30;;
16199;SDS011;8207;52.494;4.654;2024-02-04T00:37:56;5.40;;;1.90;;
16199;SDS011;8207;52.494;4.654;2024-02-04T00:40:22;4.47;;;1.95;;
16199;SDS011;8207;52.494;4.654;2024-02-04T00:42:47;5.18;;;2.10;;
16199;SDS011;8207;52.494;4.654;2024-02-04T00:45:12;4.50;;;1.97;;
16199;SDS011;8207;52.494;4.654;2024-02-04T00:47:38;5.30;;;1.95;;
16199;SDS011;8207;52.494;4.654;2024-02-04T00:50:03;4.95;;;2.08;;
16199;SDS011;8207;52.494;4.654;2024-02-04T00:52:28;5.43;;;2.10;;
16199;SDS011;8207;52.494;4.654;2024-02-04T00:54:53;5.60;;;2.20;;
16199;SDS011;8207;52.494;4.654;2024-02-04T00:57:19;5.03;;;1.97;;
16199;SDS011;8207;52.494;4.654;2024-02-04T00:59:44;3.97;;;1.87;;
16199;SDS011;8207;52.494;4.654;2024-02-04T01:02:09;7.33;;;2.20;;
16199;SDS011;8207;52.494;4.654;2024-02-04T01:04:34;6.33;;;2.07;;
16199;SDS011;8207;52.494;4.654;2024-02-04T01:06:59;4.70;;;1.97;;
16199;SDS011;8207;52.494;4.654;2024-02-04T01:09:25;4.07;;;1.60;;
16199;SDS011;8207;52.494;4.654;2024-02-04T01:11:50;4.57;;;1.80;;
16199;SDS011;8207;52.494;4.654;2024-02-04T01:14:15;4.93;;;1.88;;
16199;SDS011;8207;52.494;4.654;2024-02-04T01:16:40;3.57;;;1.47;;
16199;SDS011;8207;52.494;4.654;2024-02-04T01:19:06;6.07;;;1.90;;
16199;SDS011;8207;52.494;4.654;2024-02-04T01:21:31;3.13;;;1.53;;
16199;SDS011;8207;52.494;4.654;2024-02-04T01:23:56;4.47;;;1.70;;
16199;SDS011;8207;52.494;4.654;2024-02-04T01:26:21;4.77;;;1.83;;
16199;SDS011;8207;52.494;4.654;2024-02-04T01:28:48;4.45;;;1.80;;
16199;SDS011;8207;52.494;4.654;2024-02-04T01:31:13;4.60;;;1.67;;
16199;SDS011;8207;52.494;4.654;2024-02-04T01:33:39;4.40;;;1.73;;
16199;SDS011;8207;52.494;4.654;2024-02-04T01:36:04;3.73;;;1.67;;
16199;SDS011;8207;52.494;4.654;2024-02-04T01:38:29;4.72;;;1.65;;
16199;SDS011;8207;52.494;4.654;2024-02-04T01:40:54;4.83;;;1.90;;
16199;SDS011;8207;52.494;4.654;2024-02-04T01:43:20;3.97;;;1.60;;
16199;SDS011;8207;52.494;4.654;2024-02-04T01:45:46;4.85;;;1.63;;
16199;SDS011;8207;52.494;4.654;2024-02-04T01:48:12;3.78;;;1.63;;
16199;SDS011;8207;52.494;4.654;2024-02-04T01:50:39;4.22;;;1.40;;
16199;SDS011;8207;52.494;4.654;2024-02-04T01:53:05;3.97;;;1.55;;
16199;SDS011;8207;52.494;4.654;2024-02-04T01:55:30;3.65;;;1.75;;
16199;SDS011;8207;52.494;4.654;2024-02-04T01:57:56;3.10;;;1.40;;
16199;SDS011;8207;52.494;4.654;2024-02-04T02:00:21;4.10;;;1.70;;
16199;SDS011;8207;52.494;4.654;2024-02-04T02:02:47;4.15;;;1.58;;
16199;SDS011;8207;52.494;4.654;2024-02-04T02:05:13;3.60;;;1.67;;
16199;SDS011;8207;52.494;4.654;2024-02-04T02:07:40;3.80;;;1.55;;
16199;SDS011;8207;52.494;4.654;2024-02-04T02:10:05;3.70;;;1.52;;
16199;SDS011;8207;52.494;4.654;2024-02-04T02:12:39;4.22;;;1.70;;
16199;SDS011;8207;52.494;4.654;2024-02-04T02:17:45;3.70;;;1.48;;
16199;SDS011;8207;52.494;4.654;2024-02-04T02:20:19;2.83;;;1.35;;
16199;SDS011;8207;52.494;4.654;2024-02-04T02:25:25;4.00;;;1.40;;
16199;SDS011;8207;52.494;4.654;2024-02-04T02:27:51;3.80;;;1.38;;
16199;SDS011;8207;52.494;4.654;2024-02-04T02:30:17;4.17;;;1.50;;
16199;SDS011;8207;52.494;4.654;2024-02-04T02:32:43;3.17;;;1.38;;
16199;SDS011;8207;52.494;4.654;2024-02-04T02:35:09;3.03;;;1.38;;
16199;SDS011;8207;52.494;4.654;2024-02-04T02:37:44;4.07;;;1.30;;
16199;SDS011;8207;52.494;4.654;2024-02-04T02:42:41;2.90;;;1.20;;
16199;SDS011;8207;52.494;4.654;2024-02-04T02:45:07;3.70;;;1.30;;
16199;SDS011;8207;52.494;4.654;2024-02-04T02:47:32;3.83;;;1.27;;
16199;SDS011;8207;52.494;4.654;2024-02-04T02:49:59;4.20;;;1.52;;
16199;SDS011;8207;52.494;4.654;2024-02-04T02:52:25;3.92;;;1.58;;
16199;SDS011;8207;52.494;4.654;2024-02-04T02:54:50;3.55;;;1.40;;
16199;SDS011;8207;52.494;4.654;2024-02-04T02:57:15;3.60;;;1.30;;
16199;SDS011;8207;52.494;4.654;2024-02-04T02:59:40;3.43;;;1.40;;
16199;SDS011;8207;52.494;4.654;2024-02-04T03:02:05;3.37;;;1.23;;
16199;SDS011;8207;52.494;4.654;2024-02-04T03:04:31;2.90;;;1.40;;
16199;SDS011;8207;52.494;4.654;2024-02-04T03:06:56;3.40;;;1.40;;
16199;SDS011;8207;52.494;4.654;2024-02-04T03:09:21;2.90;;;1.10;;
16199;SDS011;8207;52.494;4.654;2024-02-04T03:11:46;3.83;;;1.35;;
16199;SDS011;8207;52.494;4.654;2024-02-04T03:14:13;3.00;;;1.20;;
16199;SDS011;8207;52.494;4.654;2024-02-04T03:16:39;3.70;;;1.60;;
16199;SDS011;8207;52.494;4.654;2024-02-04T03:19:07;2.70;;;1.10;;
16199;SDS011;8207;52.494;4.654;2024-02-04T03:21:32;2.40;;;1.05;;
16199;SDS011;8207;52.494;4.654;2024-02-04T03:23:57;3.00;;;1.10;;
16199;SDS011;8207;52.494;4.654;2024-02-04T03:26:23;4.77;;;1.40;;
16199;SDS011;8207;52.494;4.654;2024-02-04T03:28:48;3.23;;;1.30;;
16199;SDS011;8207;52.494;4.654;2024-02-04T03:31:19;2.30;;;0.93;;
16199;SDS011;8207;52.494;4.654;2024-02-04T03:33:44;3.15;;;1.08;;
16199;SDS011;8207;52.494;4.654;2024-02-04T03:36:09;3.03;;;1.30;;
16199;SDS011;8207;52.494;4.654;2024-02-04T03:38:35;3.35;;;1.10;;
16199;SDS011;8207;52.494;4.654;2024-02-04T03:41:00;2.50;;;1.10;;
16199;SDS011;8207;52.494;4.654;2024-02-04T03:43:25;3.20;;;1.13;;
16199;SDS011;8207;52.494;4.654;2024-02-04T03:45:50;2.17;;;1.00;;
16199;SDS011;8207;52.494;4.654;2024-02-04T03:48:15;3.07;;;1.07;;
16199;SDS011;8207;52.494;4.654;2024-02-04T03:50:41;3.15;;;1.05;;
16199;SDS011;8207;52.494;4.654;2024-02-04T03:53:06;3.33;;;0.90;;
16199;SDS011;8207;52.494;4.654;2024-02-04T03:55:32;3.20;;;1.20;;
16199;SDS011;8207;52.494;4.654;2024-02-04T03:57:57;3.40;;;1.30;;
16199;SDS011;8207;52.494;4.654;2024-02-04T04:00:22;5.40;;;1.55;;
16199;SDS011;8207;52.494;4.654;2024-02-04T04:02:48;4.23;;;1.47;;
16199;SDS011;8207;52.494;4.654;2024-02-04T04:05:13;2.57;;;0.93;;
16199;SDS011;8207;52.494;4.654;2024-02-04T04:07:38;2.83;;;1.07;;
16199;SDS011;8207;52.494;4.654;2024-02-04T04:10:04;3.78;;;1.27;;
16199;SDS011;8207;52.494;4.654;2024-02-04T04:12:29;2.92;;;1.20;;
16199;SDS011;8207;52.494;4.654;2024-02-04T04:14:54;3.73;;;0.90;;
16199;SDS011;8207;52.494;4.654;2024-02-04T04:17:19;3.70;;;1.40;;
16199;SDS011;8207;52.494;4.654;2024-02-04T04:19:45;3.93;;;1.20;;
16199;SDS011;8207;52.494;4.654;2024-02-04T04:22:10;3.57;;;1.20;;
16199;SDS011;8207;52.494;4.654;2024-02-04T04:24:35;3.38;;;1.20;;
16199;SDS011;8207;52.494;4.654;2024-02-04T04:27:00;3.27;;;1.00;;
16199;SDS011;8207;52.494;4.654;2024-02-04T04:29:25;3.10;;;1.13;;
16199;SDS011;8207;52.494;4.654;2024-02-04T04:31:51;2.47;;;0.90;;
16199;SDS011;8207;52.494;4.654;2024-02-04T04:34:17;4.30;;;1.33;;
16199;SDS011;8207;52.494;4.654;2024-02-04T04:36:44;2.35;;;1.00;;
16199;SDS011;8207;52.494;4.654;2024-02-04T04:39:09;3.25;;;1.10;;
16199;SDS011;8207;52.494;4.654;2024-02-04T04:41:35;3.07;;;1.00;;
16199;SDS011;8207;52.494;4.654;2024-02-04T04:44:00;4.38;;;1.25;;
16199;SDS011;8207;52.494;4.654;2024-02-04T04:46:26;3.10;;;1.10;;
16199;SDS011;8207;52.494;4.654;2024-02-04T04:48:51;3.67;;;1.10;;
16199;SDS011;8207;52.494;4.654;2024-02-04T04:51:17;2.75;;;0.90;;
16199;SDS011;8207;52.494;4.654;2024-02-04T04:53:42;3.53;;;1.00;;
16199;SDS011;8207;52.494;4.654;2024-02-04T04:56:07;4.65;;;1.10;;
16199;SDS011;8207;52.494;4.654;2024-02-04T04:58:33;3.37;;;1.07;;
16199;SDS011;8207;52.494;4.654;2024-02-04T05:00:59;4.57;;;1.40;;
16199;SDS011;8207;52.494;4.654;2024-02-04T05:03:25;2.93;;;1.00;;
16199;SDS011;8207;52.494;4.654;2024-02-04T05:05:50;4.03;;;1.10;;
16199;SDS011;8207;52.494;4.654;2024-02-04T05:08:15;3.73;;;1.07;;
16199;SDS011;8207;52.494;4.654;2024-02-04T05:10:40;4.65;;;1.17;;
16199;SDS011;8207;52.494;4.654;2024-02-04T05:13:06;4.60;;;1.13;;
16199;SDS011;8207;52.494;4.654;2024-02-04T05:15:32;2.72;;;1.00;;
16199;SDS011;8207;52.494;4.654;2024-02-04T05:17:59;3.45;;;1.08;;
16199;SDS011;8207;52.494;4.654;2024-02-04T05:20:24;3.78;;;1.15;;
16199;SDS011;8207;52.494;4.654;2024-02-04T05:22:49;3.45;;;1.05;;
16199;SDS011;8207;52.494;4.654;2024-02-04T05:25:14;3.80;;;1.17;;
16199;SDS011;8207;52.494;4.654;2024-02-04T05:27:39;3.17;;;1.00;;
16199;SDS011;8207;52.494;4.654;2024-02-04T05:30:05;3.53;;;1.10;;
16199;SDS011;8207;52.494;4.654;2024-02-04T05:32:30;3.75;;;1.20;;
16199;SDS011;8207;52.494;4.654;2024-02-04T05:34:55;3.35;;;1.20;;
16199;SDS011;8207;52.494;4.654;2024-02-04T05:37:21;2.50;;;0.90;;
16199;SDS011;8207;52.494;4.654;2024-02-04T05:39:46;4.40;;;1.00;;
16199;SDS011;8207;52.494;4.654;2024-02-04T05:42:12;3.55;;;1.17;;
16199;SDS011;8207;52.494;4.654;2024-02-04T05:44:37;2.47;;;0.80;;
16199;SDS011;8207;52.494;4.654;2024-02-04T05:47:02;4.30;;;1.10;;
16199;SDS011;8207;52.494;4.654;2024-02-04T05:49:27;3.70;;;1.20;;
16199;SDS011;8207;52.494;4.654;2024-02-04T05:51:53;2.67;;;0.97;;
16199;SDS011;8207;52.494;4.654;2024-02-04T05:54:18;2.53;;;0.90;;
16199;SDS011;8207;52.494;4.654;2024-02-04T05:56:43;3.87;;;1.10;;
16199;SDS011;8207;52.494;4.654;2024-02-04T05:59:09;3.53;;;1.20;;
16199;SDS011;8207;52.494;4.654;2024-02-04T06:01:34;3.17;;;1.20;;
16199;SDS011;8207;52.494;4.654;2024-02-04T06:03:59;3.75;;;1.20;;
16199;SDS011;8207;52.494;4.654;2024-02-04T06:06:24;2.97;;;0.87;;
16199;SDS011;8207;52.494;4.654;2024-02-04T06:08:49;4.60;;;1.10;;
16199;SDS011;8207;52.494;4.654;2024-02-04T06:11:15;3.28;;;1.08;;
16199;SDS011;8207;52.494;4.654;2024-02-04T06:13:41;3.47;;;1.20;;
16199;SDS011;8207;52.494;4.654;2024-02-04T06:16:07;3.03;;;1.05;;
16199;SDS011;8207;52.494;4.654;2024-02-04T06:18:32;3.72;;;1.00;;
16199;SDS011;8207;52.494;4.654;2024-02-04T06:20:57;3.07;;;0.97;;
16199;SDS011;8207;52.494;4.654;2024-02-04T06:23:22;3.67;;;1.00;;
16199;SDS011;8207;52.494;4.654;2024-02-04T06:25:48;3.10;;;1.10;;
16199;SDS011;8207;52.494;4.654;2024-02-04T06:28:13;3.90;;;1.33;;
16199;SDS011;8207;52.494;4.654;2024-02-04T06:30:38;4.05;;;1.20;;
16199;SDS011;8207;52.494;4.654;2024-02-04T06:33:03;3.93;;;1.30;;
16199;SDS011;8207;52.494;4.654;2024-02-04T06:35:28;3.78;;;1.23;;
16199;SDS011;8207;52.494;4.654;2024-02-04T06:37:54;3.78;;;1.20;;
16199;SDS011;8207;52.494;4.654;2024-02-04T06:40:19;3.70;;;1.10;;
16199;SDS011;8207;52.494;4.654;2024-02-04T06:42:44;3.30;;;1.30;;
16199;SDS011;8207;52.494;4.654;2024-02-04T06:45:09;4.60;;;1.27;;
16199;SDS011;8207;52.494;4.654;2024-02-04T06:47:35;4.03;;;1.00;;
16199;SDS011;8207;52.494;4.654;2024-02-04T06:50:00;3.03;;;1.13;;
16199;SDS011;8207;52.494;4.654;2024-02-04T06:52:28;3.15;;;1.10;;
16199;SDS011;8207;52.494;4.654;2024-02-04T06:54:53;2.85;;;1.17;;
16199;SDS011;8207;52.494;4.654;2024-02-04T06:57:18;3.33;;;1.20;;
16199;SDS011;8207;52.494;4.654;2024-02-04T06:59:43;3.40;;;1.13;;
16199;SDS011;8207;52.494;4.654;2024-02-04T07:02:08;2.43;;;0.90;;
16199;SDS011;8207;52.494;4.654;2024-02-04T07:04:34;2.73;;;1.07;;
16199;SDS011;8207;52.494;4.654;2024-02-04T07:06:59;3.72;;;1.23;;
16199;SDS011;8207;52.494;4.654;2024-02-04T07:09:24;2.97;;;1.27;;
16199;SDS011;8207;52.494;4.654;2024-02-04T07:11:49;3.43;;;1.20;;
16199;SDS011;8207;52.494;4.654;2024-02-04T07:14:14;4.68;;;1.15;;
16199;SDS011;8207;52.494;4.654;2024-02-04T07:16:40;2.55;;;1.02;;
16199;SDS011;8207;52.494;4.654;2024-02-04T07:19:05;3.93;;;1.10;;
16199;SDS011;8207;52.494;4.654;2024-02-04T07:21:30;2.73;;;1.10;;
16199;SDS011;8207;52.494;4.654;2024-02-04T07:23:55;3.33;;;1.20;;
16199;SDS011;8207;52.494;4.654;2024-02-04T07:26:20;3.23;;;1.17;;
16199;SDS011;8207;52.494;4.654;2024-02-04T07:28:46;4.07;;;1.20;;
16199;SDS011;8207;52.494;4.654;2024-02-04T07:31:11;2.77;;;1.20;;
16199;SDS011;8207;52.494;4.654;2024-02-04T07:33:36;3.37;;;1.10;;
16199;SDS011;8207;52.494;4.654;2024-02-04T07:36:01;3.55;;;1.10;;
16199;SDS011;8207;52.494;4.654;2024-02-04T07:38:27;3.42;;;1.10;;
16199;SDS011;8207;52.494;4.654;2024-02-04T07:40:52;3.33;;;0.90;;
16199;SDS011;8207;52.494;4.654;2024-02-04T07:43:18;4.15;;;0.98;;
16199;SDS011;8207;52.494;4.654;2024-02-04T07:45:43;3.60;;;1.10;;
16199;SDS011;8207;52.494;4.654;2024-02-04T07:48:08;3.83;;;1.60;;
16199;SDS011;8207;52.494;4.654;2024-02-04T07:50:34;3.20;;;1.08;;
16199;SDS011;8207;52.494;4.654;2024-02-04T07:52:59;4.00;;;1.00;;
16199;SDS011;8207;52.494;4.654;2024-02-04T07:55:25;3.67;;;1.10;;
16199;SDS011;8207;52.494;4.654;2024-02-04T07:57:50;2.83;;;1.00;;
16199;SDS011;8207;52.494;4.654;2024-02-04T08:00:15;4.23;;;1.43;;
16199;SDS011;8207;52.494;4.654;2024-02-04T08:02:40;4.57;;;1.33;;
16199;SDS011;8207;52.494;4.654;2024-02-04T08:05:05;3.27;;;1.13;;
16199;SDS011;8207;52.494;4.654;2024-02-04T08:07:31;4.25;;;1.20;;
16199;SDS011;8207;52.494;4.654;2024-02-04T08:09:57;4.65;;;1.25;;
16199;SDS011;8207;52.494;4.654;2024-02-04T08:12:22;4.25;;;1.10;;
16199;SDS011;8207;52.494;4.654;2024-02-04T08:14:47;3.75;;;1.10;;
16199;SDS011;8207;52.494;4.654;2024-02-04T08:17:13;4.57;;;1.45;;
16199;SDS011;8207;52.494;4.654;2024-02-04T08:19:38;3.30;;;1.00;;
16199;SDS011;8207;52.494;4.654;2024-02-04T08:22:03;3.83;;;1.00;;
16199;SDS011;8207;52.494;4.654;2024-02-04T08:24:29;2.72;;;1.05;;
16199;SDS011;8207;52.494;4.654;2024-02-04T08:26:56;3.72;;;1.20;;
16199;SDS011;8207;52.494;4.654;2024-02-04T08:29:22;3.40;;;1.20;;
16199;SDS011;8207;52.494;4.654;2024-02-04T08:31:47;3.28;;;1.10;;
16199;SDS011;8207;52.494;4.654;2024-02-04T08:34:12;5.87;;;1.23;;
16199;SDS011;8207;52.494;4.654;2024-02-04T08:36:38;3.70;;;1.20;;
16199;SDS011;8207;52.494;4.654;2024-02-04T08:39:03;5.20;;;1.20;;
16199;SDS011;8207;52.494;4.654;2024-02-04T08:41:28;3.58;;;1.40;;
16199;SDS011;8207;52.494;4.654;2024-02-04T08:43:53;5.15;;;1.30;;
16199;SDS011;8207;52.494;4.654;2024-02-04T08:46:18;5.07;;;1.80;;
16199;SDS011;8207;52.494;4.654;2024-02-04T08:48:44;3.70;;;1.10;;
16199;SDS011;8207;52.494;4.654;2024-02-04T08:51:12;6.63;;;1.63;;
16199;SDS011;8207;52.494;4.654;2024-02-04T08:53:38;8.40;;;2.50;;
16199;SDS011;8207;52.494;4.654;2024-02-04T08:56:03;6.53;;;1.70;;
16199;SDS011;8207;52.494;4.654;2024-02-04T08:58:29;5.40;;;1.88;;
16199;SDS011;8207;52.494;4.654;2024-02-04T09:00:55;6.10;;;1.90;;
16199;SDS011;8207;52.494;4.654;2024-02-04T09:03:20;6.23;;;1.70;;
16199;SDS011;8207;52.494;4.654;2024-02-04T09:05:45;6.20;;;1.57;;
16199;SDS011;8207;52.494;4.654;2024-02-04T09:08:10;4.93;;;1.80;;
16199;SDS011;8207;52.494;4.654;2024-02-04T09:10:36;5.40;;;1.85;;
16199;SDS011;8207;52.494;4.654;2024-02-04T09:13:01;7.60;;;1.67;;
16199;SDS011;8207;52.494;4.654;2024-02-04T09:15:26;5.28;;;1.85;;
16199;SDS011;8207;52.494;4.654;2024-02-04T09:17:51;7.60;;;1.70;;
16199;SDS011;8207;52.494;4.654;2024-02-04T09:20:16;5.97;;;1.77;;
16199;SDS011;8207;52.494;4.654;2024-02-04T09:22:42;5.95;;;1.80;;
16199;SDS011;8207;52.494;4.654;2024-02-04T09:25:08;7.60;;;2.10;;
16199;SDS011;8207;52.494;4.654;2024-02-04T09:27:33;6.25;;;2.38;;
16199;SDS011;8207;52.494;4.654;2024-02-04T09:29:58;5.85;;;1.83;;
16199;SDS011;8207;52.494;4.654;2024-02-04T09:32:23;7.00;;;2.05;;
16199;SDS011;8207;52.494;4.654;2024-02-04T09:34:49;6.30;;;2.17;;
16199;SDS011;8207;52.494;4.654;2024-02-04T09:37:14;5.30;;;1.90;;
16199;SDS011;8207;52.494;4.654;2024-02-04T09:39:39;5.63;;;1.75;;
16199;SDS011;8207;52.494;4.654;2024-02-04T09:42:05;6.15;;;1.70;;
16199;SDS011;8207;52.494;4.654;2024-02-04T09:44:30;6.00;;;2.15;;
16199;SDS011;8207;52.494;4.654;2024-02-04T09:46:57;6.53;;;1.90;;
16199;SDS011;8207;52.494;4.654;2024-02-04T09:49:24;5.85;;;2.03;;
16199;SDS011;8207;52.494;4.654;2024-02-04T09:51:50;6.32;;;2.10;;
16199;SDS011;8207;52.494;4.654;2024-02-04T09:54:15;5.53;;;1.73;;
16199;SDS011;8207;52.494;4.654;2024-02-04T09:56:41;5.75;;;1.75;;
16199;SDS011;8207;52.494;4.654;2024-02-04T09:59:06;5.82;;;1.88;;
16199;SDS011;8207;52.494;4.654;2024-02-04T10:01:32;7.75;;;2.00;;
16199;SDS011;8207;52.494;4.654;2024-02-04T10:03:57;7.70;;;2.28;;
16199;SDS011;8207;52.494;4.654;2024-02-04T10:06:23;6.15;;;2.05;;
16199;SDS011;8207;52.494;4.654;2024-02-04T10:08:48;5.22;;;1.80;;
16199;SDS011;8207;52.494;4.654;2024-02-04T10:11:14;6.00;;;1.90;;
16199;SDS011;8207;52.494;4.654;2024-02-04T10:13:46;5.70;;;1.80;;
16199;SDS011;8207;52.494;4.654;2024-02-04T10:16:14;6.35;;;2.05;;
16199;SDS011;8207;52.494;4.654;2024-02-04T10:18:46;5.93;;;1.90;;
16199;SDS011;8207;52.494;4.654;2024-02-04T10:21:20;7.47;;;1.90;;
16199;SDS011;8207;52.494;4.654;2024-02-04T10:23:45;6.00;;;1.90;;
16199;SDS011;8207;52.494;4.654;2024-02-04T10:26:11;7.88;;;1.92;;
16199;SDS011;8207;52.494;4.654;2024-02-04T10:28:36;6.00;;;1.75;;
16199;SDS011;8207;52.494;4.654;2024-02-04T10:31:02;6.07;;;1.70;;
16199;SDS011;8207;52.494;4.654;2024-02-04T10:33:29;6.63;;;1.70;;
16199;SDS011;8207;52.494;4.654;2024-02-04T10:35:55;6.28;;;1.80;;
16199;SDS011;8207;52.494;4.654;2024-02-04T10:38:20;4.27;;;1.70;;
16199;SDS011;8207;52.494;4.654;2024-02-04T10:40:45;4.80;;;1.80;;
16199;SDS011;8207;52.494;4.654;2024-02-04T10:43:11;5.65;;;1.70;;
16199;SDS011;8207;52.494;4.654;2024-02-04T10:45:36;5.45;;;1.75;;
16199;SDS011;8207;52.494;4.654;2024-02-04T10:48:04;5.18;;;1.65;;
16199;SDS011;8207;52.494;4.654;2024-02-04T10:50:30;5.90;;;1.77;;
16199;SDS011;8207;52.494;4.654;2024-02-04T10:53:03;5.07;;;1.60;;
16199;SDS011;8207;52.494;4.654;2024-02-04T10:55:30;6.00;;;2.00;;
16199;SDS011;8207;52.494;4.654;2024-02-04T10:57:55;5.45;;;1.77;;
16199;SDS011;8207;52.494;4.654;2024-02-04T11:00:21;5.45;;;1.70;;
16199;SDS011;8207;52.494;4.654;2024-02-04T11:02:46;6.35;;;1.55;;
16199;SDS011;8207;52.494;4.654;2024-02-04T11:05:14;5.35;;;1.73;;
16199;SDS011;8207;52.494;4.654;2024-02-04T11:07:41;4.85;;;1.73;;
16199;SDS011;8207;52.494;4.654;2024-02-04T11:10:08;6.85;;;1.80;;
16199;SDS011;8207;52.494;4.654;2024-02-04T11:12:33;7.00;;;1.70;;
16199;SDS011;8207;52.494;4.654;2024-02-04T11:15:01;4.93;;;1.48;;
16199;SDS011;8207;52.494;4.654;2024-02-04T11:20:23;5.45;;;1.55;;
16199;SDS011;8207;52.494;4.654;2024-02-04T11:27:56;6.65;;;1.63;;
16199;SDS011;8207;52.494;4.654;2024-02-04T11:30:22;8.15;;;1.70;;
16199;SDS011;8207;52.494;4.654;2024-02-04T11:32:47;4.80;;;1.48;;
16199;SDS011;8207;52.494;4.654;2024-02-04T11:35:13;6.80;;;1.38;;
16199;SDS011;8207;52.494;4.654;2024-02-04T11:37:38;9.73;;;1.80;;
16199;SDS011;8207;52.494;4.654;2024-02-04T11:40:07;7.07;;;1.45;;
16199;SDS011;8207;52.494;4.654;2024-02-04T11:42:32;5.50;;;1.30;;
16199;SDS011;8207;52.494;4.654;2024-02-04T11:45:07;4.70;;;1.52;;
16199;SDS011;8207;52.494;4.654;2024-02-04T11:47:33;5.93;;;1.70;;
16199;SDS011;8207;52.494;4.654;2024-02-04T11:49:58;4.90;;;1.65;;
16199;SDS011;8207;52.494;4.654;2024-02-04T11:52:26;4.70;;;1.23;;
16199;SDS011;8207;52.494;4.654;2024-02-04T11:54:52;4.30;;;1.15;;
16199;SDS011;8207;52.494;4.654;2024-02-04T11:57:17;8.48;;;1.60;;
16199;SDS011;8207;52.494;4.654;2024-02-04T11:59:42;7.63;;;1.70;;
16199;SDS011;8207;52.494;4.654;2024-02-04T12:02:09;5.18;;;1.40;;
16199;SDS011;8207;52.494;4.654;2024-02-04T12:04:36;5.32;;;1.50;;
16199;SDS011;8207;52.494;4.654;2024-02-04T12:07:03;5.38;;;1.70;;
16199;SDS011;8207;52.494;4.654;2024-02-04T12:09:28;5.63;;;1.13;;
16199;SDS011;8207;52.494;4.654;2024-02-04T12:11:54;10.97;;;1.53;;
16199;SDS011;8207;52.494;4.654;2024-02-04T12:14:19;7.45;;;1.55;;
16199;SDS011;8207;52.494;4.654;2024-02-04T12:16:44;5.93;;;1.88;;
16199;SDS011;8207;52.494;4.654;2024-02-04T12:19:10;6.15;;;1.80;;
16199;SDS011;8207;52.494;4.654;2024-02-04T12:21:35;6.10;;;1.30;;
16199;SDS011;8207;52.494;4.654;2024-02-04T12:24:02;5.03;;;1.15;;
16199;SDS011;8207;52.494;4.654;2024-02-04T12:26:27;8.35;;;1.38;;
16199;SDS011;8207;52.494;4.654;2024-02-04T12:28:53;6.15;;;1.30;;
16199;SDS011;8207;52.494;4.654;2024-02-04T12:31:19;5.18;;;1.38;;
16199;SDS011;8207;52.494;4.654;2024-02-04T12:33:53;5.82;;;1.50;;
16199;SDS011;8207;52.494;4.654;2024-02-04T12:36:20;3.60;;;1.25;;
16199;SDS011;8207;52.494;4.654;2024-02-04T12:38:55;5.05;;;1.40;;
16199;SDS011;8207;52.494;4.654;2024-02-04T12:41:20;6.75;;;1.42;;
16199;SDS011;8207;52.494;4.654;2024-02-04T12:43:49;5.55;;;1.33;;
16199;SDS011;8207;52.494;4.654;2024-02-04T12:46:14;5.03;;;1.42;;
16199;SDS011;8207;52.494;4.654;2024-02-04T12:48:39;5.17;;;1.37;;
16199;SDS011;8207;52.494;4.654;2024-02-04T12:51:04;7.20;;;1.48;;
16199;SDS011;8207;52.494;4.654;2024-02-04T12:53:30;4.80;;;1.38;;
16199;SDS011;8207;52.494;4.654;2024-02-04T12:55:58;3.83;;;1.20;;
16199;SDS011;8207;52.494;4.654;2024-02-04T12:58:24;3.45;;;1.02;;
16199;SDS011;8207;52.494;4.654;2024-02-04T13:00:58;5.13;;;1.27;;
16199;SDS011;8207;52.494;4.654;2024-02-04T13:03:24;4.57;;;1.58;;
16199;SDS011;8207;52.494;4.654;2024-02-04T13:05:49;4.70;;;1.30;;
16199;SDS011;8207;52.494;4.654;2024-02-04T13:08:14;4.70;;;1.30;;
16199;SDS011;8207;52.494;4.654;2024-02-04T13:10:43;4.55;;;1.30;;
16199;SDS011;8207;52.494;4.654;2024-02-04T13:13:10;7.47;;;1.67;;
16199;SDS011;8207;52.494;4.654;2024-02-04T13:15:41;4.53;;;1.40;;
16199;SDS011;8207;52.494;4.654;2024-02-04T13:18:08;4.30;;;1.45;;
16199;SDS011;8207;52.494;4.654;2024-02-04T13:20:33;4.60;;;1.63;;
16199;SDS011;8207;52.494;4.654;2024-02-04T13:22:58;3.57;;;1.13;;
16199;SDS011;8207;52.494;4.654;2024-02-04T13:25:25;5.03;;;1.40;;
16199;SDS011;8207;52.494;4.654;2024-02-04T13:27:50;3.75;;;1.45;;
16199;SDS011;8207;52.494;4.654;2024-02-04T13:30:16;5.18;;;1.60;;
16199;SDS011;8207;52.494;4.654;2024-02-04T13:32:42;5.53;;;1.50;;
16199;SDS011;8207;52.494;4.654;2024-02-04T13:35:07;5.50;;;1.42;;
16199;SDS011;8207;52.494;4.654;2024-02-04T13:37:38;6.55;;;1.40;;
16199;SDS011;8207;52.494;4.654;2024-02-04T13:40:04;5.97;;;1.67;;
16199;SDS011;8207;52.494;4.654;2024-02-04T13:42:31;5.47;;;1.80;;
16199;SDS011;8207;52.494;4.654;2024-02-04T13:44:56;6.15;;;1.63;;
16199;SDS011;8207;52.494;4.654;2024-02-04T13:47:21;4.43;;;1.23;;
16199;SDS011;8207;52.494;4.654;2024-02-04T13:49:47;5.60;;;1.53;;
16199;SDS011;8207;52.494;4.654;2024-02-04T13:52:12;5.83;;;1.73;;
16199;SDS011;8207;52.494;4.654;2024-02-04T13:54:37;5.53;;;1.70;;
16199;SDS011;8207;52.494;4.654;2024-02-04T13:57:02;5.20;;;1.50;;
16199;SDS011;8207;52.494;4.654;2024-02-04T13:59:27;5.10;;;1.50;;
16199;SDS011;8207;52.494;4.654;2024-02-04T14:01:53;6.43;;;1.60;;
16199;SDS011;8207;52.494;4.654;2024-02-04T14:04:18;5.70;;;1.45;;
16199;SDS011;8207;52.494;4.654;2024-02-04T14:06:43;8.23;;;1.77;;
16199;SDS011;8207;52.494;4.654;2024-02-04T14:09:09;5.77;;;1.70;;
16199;SDS011;8207;52.494;4.654;2024-02-04T14:11:37;5.38;;;1.60;;
16199;SDS011;8207;52.494;4.654;2024-02-04T14:14:03;5.60;;;1.58;;
16199;SDS011;8207;52.494;4.654;2024-02-04T14:16:28;6.03;;;1.77;;
16199;SDS011;8207;52.494;4.654;2024-02-04T14:18:54;6.53;;;2.10;;
16199;SDS011;8207;52.494;4.654;2024-02-04T14:21:19;4.77;;;1.57;;
16199;SDS011;8207;52.494;4.654;2024-02-04T14:23:45;7.03;;;1.80;;
16199;SDS011;8207;52.494;4.654;2024-02-04T14:26:19;4.33;;;1.80;;
16199;SDS011;8207;52.494;4.654;2024-02-04T14:28:44;7.47;;;2.08;;
16199;SDS011;8207;52.494;4.654;2024-02-04T14:31:10;6.83;;;1.97;;
16199;SDS011;8207;52.494;4.654;2024-02-04T14:33:35;5.87;;;1.80;;
16199;SDS011;8207;52.494;4.654;2024-02-04T14:36:00;6.25;;;2.00;;
16199;SDS011;8207;52.494;4.654;2024-02-04T14:38:26;6.63;;;2.00;;
16199;SDS011;8207;52.494;4.654;2024-02-04T14:40:51;5.28;;;1.98;;
16199;SDS011;8207;52.494;4.654;2024-02-04T14:43:16;5.60;;;2.07;;
16199;SDS011;8207;52.494;4.654;2024-02-04T14:45:43;6.85;;;2.20;;
16199;SDS011;8207;52.494;4.654;2024-02-04T14:48:08;7.25;;;2.50;;
16199;SDS011;8207;52.494;4.654;2024-02-04T14:50:33;5.40;;;2.03;;
16199;SDS011;8207;52.494;4.654;2024-02-04T14:52:58;7.00;;;2.20;;
16199;SDS011;8207;52.494;4.654;2024-02-04T14:55:23;7.13;;;2.30;;
16199;SDS011;8207;52.494;4.654;2024-02-04T14:57:48;9.17;;;2.23;;
16199;SDS011;8207;52.494;4.654;2024-02-04T15:00:14;6.13;;;2.10;;
16199;SDS011;8207;52.494;4.654;2024-02-04T15:02:39;8.20;;;2.15;;
16199;SDS011;8207;52.494;4.654;2024-02-04T15:05:05;5.50;;;2.03;;
16199;SDS011;8207;52.494;4.654;2024-02-04T15:07:30;6.45;;;2.35;;